Time;durP1;ratioP1;P1;durP2;ratioP2;P2;SDS_P1;SDS_P2;PMS_P1;PMS_P2;Temp;Humidity;BMP_temperature;BMP_pressure;BME280_temperature;BME280_humidity;BME280_pressure;Samples;Min_cycle;Max_cycle;Signal;HPM_P1;HPM_P2
2023/10/19 00:00:36;;;;;;;;;;;;;;;12.86;100.00;99086.66;5020467;28;20035;-72
2023/10/19 00:03:06;;;;;;;;;;;;;;;12.80;100.00;99082.88;5019351;28;19925;-73
2023/10/19 00:05:35;;;;;;;;;;;;;;;12.82;100.00;99090.66;5020576;28;19917;-73
2023/10/19 00:08:22;;;;;;;;;;;;;;;12.78;100.00;99084.88;5019391;28;19925;-73
2023/10/19 00:13:35;;;;;;;;;;;;;;;12.82;100.00;99080.91;5019847;28;19928;-73
2023/10/19 00:16:01;;;;;;;;;;;;;;;12.84;100.00;99088.69;5018409;28;19928;-72
2023/10/19 00:18:27;;;;;;;;;;;;;;;12.82;100.00;99070.31;5003096;28;19921;-71
2023/10/19 00:23:28;;;;;;;;;;;;;;;12.81;100.00;99067.81;5021504;28;19929;-71
2023/10/19 00:25:54;;;;;;;;;;;;;;;12.75;100.00;99057.91;5018335;28;19976;-73
2023/10/19 00:28:20;;;;;;;;;;;;;;;12.77;100.00;99062.06;5021670;28;19929;-72
2023/10/19 00:30:48;;;;;;;;;;;;;;;12.77;100.00;99062.06;5017972;28;19983;-72
2023/10/19 00:33:18;;;;;;;;;;;;;;;12.75;100.00;99068.50;5003267;28;19921;-73
2023/10/19 00:35:47;;;;;;;;;;;;;;;12.73;100.00;99061.53;5018353;28;20386;-72
2023/10/19 00:38:27;;;;;;;;;;;;;;;12.70;100.00;99048.66;5003225;28;20424;-71
2023/10/19 00:40:53;;;;;;;;;;;;;;;12.71;100.00;99041.53;5000378;28;20386;-72
2023/10/19 00:43:32;;;;;;;;;;;;;;;12.69;100.00;99044.34;5021730;28;20394;-73
2023/10/19 00:45:58;;;;;;;;;;;;;;;12.72;100.00;99044.00;5000805;28;19921;-72
2023/10/19 00:48:26;;;;;;;;;;;;;;;12.73;100.00;99039.53;5020937;28;19943;-72
2023/10/19 00:50:54;;;;;;;;;;;;;;;12.71;100.00;99047.66;5021522;28;19929;-72
2023/10/19 00:53:20;;;;;;;;;;;;;;;12.73;100.00;99055.41;5007635;28;20466;-72
2023/10/19 00:55:46;;;;;;;;;;;;;;;12.69;100.00;99049.66;5021761;28;19922;-71
2023/10/19 00:58:17;;;;;;;;;;;;;;;12.69;100.00;99047.00;5022417;28;19928;-72
2023/10/19 01:00:43;;;;;;;;;;;;;;;12.69;100.00;99039.06;5001556;28;19932;-72
2023/10/19 01:03:10;;;;;;;;;;;;;;;12.70;100.00;99027.47;5021437;28;20673;-72
2023/10/19 01:05:36;;;;;;;;;;;;;;;12.68;100.00;99021.50;5022738;28;20448;-72
2023/10/19 01:08:13;;;;;;;;;;;;;;;12.67;100.00;99027.81;5005488;28;20457;-73
2023/10/19 01:10:40;;;;;;;;;;;;;;;12.71;100.00;99023.84;5022725;28;19925;-71
2023/10/19 01:13:05;;;;;;;;;;;;;;;12.73;100.00;99019.19;5023361;28;19925;-71
2023/10/19 01:15:36;;;;;;;;;;;;;;;12.72;100.00;99022.03;5023739;28;19928;-71
2023/10/19 01:18:02;;;;;;;;;;;;;;;12.72;100.00;99017.53;5022722;28;20035;-72
2023/10/19 01:23:20;;;;;;;;;;;;;;;12.68;100.00;99016.22;5004206;28;20365;-73
2023/10/19 01:28:25;;;;;;;;;;;;;;;12.66;100.00;99002.31;5021435;28;20369;-73
2023/10/19 01:30:53;;;;;;;;;;;;;;;12.64;100.00;98999.03;5021087;28;19928;-73
2023/10/19 01:33:19;;;;;;;;;;;;;;;12.63;100.00;98997.38;5021315;28;19921;-73
2023/10/19 01:38:32;;;;;;;;;;;;;;;12.57;100.00;98997.22;5008714;28;20044;-73
2023/10/19 01:41:07;;;;;;;;;;;;;;;12.51;100.00;98993.44;5005753;28;19922;-73
2023/10/19 01:43:32;;;;;;;;;;;;;;;12.52;100.00;98984.50;5005394;28;19964;-72
2023/10/19 01:46:03;;;;;;;;;;;;;;;12.53;100.00;98986.16;5021544;28;19957;-72
2023/10/19 01:48:35;;;;;;;;;;;;;;;12.57;100.00;98973.41;5005267;28;20565;-73
2023/10/19 01:51:05;;;;;;;;;;;;;;;12.52;100.00;98973.09;5004045;28;19921;-73
2023/10/19 01:53:36;;;;;;;;;;;;;;;12.59;100.00;98969.59;5023134;28;19932;-72
2023/10/19 01:56:05;;;;;;;;;;;;;;;12.59;100.00;98963.47;5023750;28;20428;-72
2023/10/19 01:58:34;;;;;;;;;;;;;;;12.57;100.00;98966.28;5030258;28;19978;-73
2023/10/19 02:01:02;;;;;;;;;;;;;;;12.55;100.00;98965.63;5022623;28;20357;-73
2023/10/19 02:03:28;;;;;;;;;;;;;;;12.52;100.00;98959.84;5026578;28;20396;-72
2023/10/19 02:05:59;;;;;;;;;;;;;;;12.51;100.00;98956.38;5022042;28;20121;-72
2023/10/19 02:08:27;;;;;;;;;;;;;;;12.48;100.00;98950.63;5025895;28;20282;-72
2023/10/19 02:10:53;;;;;;;;;;;;;;;12.46;100.00;98948.13;5023170;28;19963;-72
2023/10/19 02:13:21;;;;;;;;;;;;;;;12.47;100.00;98947.16;5027351;28;19921;-72
2023/10/19 02:15:47;;;;;;;;;;;;;;;12.47;100.00;98941.03;5006341;28;20374;-72
2023/10/19 02:18:12;;;;;;;;;;;;;;;12.49;100.00;98939.00;5022660;28;19921;-72
2023/10/19 02:20:41;;;;;;;;;;;;;;;12.50;100.00;98933.56;5021375;28;19960;-72
2023/10/19 02:23:09;;;;;;;;;;;;;;;12.47;100.00;98925.97;5004208;28;19955;-72
2023/10/19 02:25:37;;;;;;;;;;;;;;;12.48;100.00;98918.88;5021709;28;19921;-72
2023/10/19 02:28:06;;;;;;;;;;;;;;;12.45;100.00;98927.94;5021353;28;20313;-73
2023/10/19 02:30:33;;;;;;;;;;;;;;;12.44;100.00;98920.19;5019694;28;19925;-73
2023/10/19 02:33:00;;;;;;;;;;;;;;;12.42;100.00;98928.31;5021805;28;20400;-72
2023/10/19 02:35:26;;;;;;;;;;;;;;;12.40;100.00;98913.56;5002411;28;20437;-72
2023/10/19 02:37:51;;;;;;;;;;;;;;;12.44;100.00;98909.59;5022947;28;20278;-73
2023/10/19 02:40:21;;;;;;;;;;;;;;;12.41;100.00;98902.84;5002497;28;19924;-73
2023/10/19 02:42:50;;;;;;;;;;;;;;;12.45;100.00;98905.97;5020447;28;20008;-72
2023/10/19 02:45:16;;;;;;;;;;;;;;;12.41;100.00;98902.84;5023635;28;20404;-72
2023/10/19 02:47:45;;;;;;;;;;;;;;;12.42;100.00;98896.56;5002935;28;19925;-72
2023/10/19 02:50:13;;;;;;;;;;;;;;;12.35;100.00;98898.22;5020361;28;20592;-74
2023/10/19 02:52:40;;;;;;;;;;;;;;;12.20;100.00;98890.16;5022681;28;20290;-74
2023/10/19 02:55:07;;;;;;;;;;;;;;;12.11;100.00;98874.47;5020957;28;20444;-71
2023/10/19 02:57:32;;;;;;;;;;;;;;;12.15;100.00;98875.78;5003853;28;20287;-72
2023/10/19 02:59:59;;;;;;;;;;;;;;;12.06;100.00;98876.81;5003633;28;19936;-73
2023/10/19 03:02:25;;;;;;;;;;;;;;;12.01;100.00;98879.97;5020246;28;19921;-72
2023/10/19 03:04:53;;;;;;;;;;;;;;;11.96;100.00;98862.94;5004479;28;19982;-73
2023/10/19 03:07:18;;;;;;;;;;;;;;;11.95;100.00;98866.59;5020261;28;19933;-73
2023/10/19 03:09:53;;;;;;;;;;;;;;;11.92;100.00;98851.03;5018762;28;19929;-73
2023/10/19 03:12:20;;;;;;;;;;;;;;;11.85;100.00;98858.81;5018579;28;20889;-73
2023/10/19 03:14:49;;;;;;;;;;;;;;;11.87;100.00;98852.38;5023397;28;20282;-72
2023/10/19 03:17:15;;;;;;;;;;;;;;;11.87;100.00;98857.66;5022773;28;20291;-72
2023/10/19 03:19:42;;;;;;;;;;;;;;;11.86;100.00;98855.19;5019151;28;20380;-73
2023/10/19 03:22:08;;;;;;;;;;;;;;;11.78;100.00;98847.28;5020205;28;19922;-73
2023/10/19 03:24:42;;;;;;;;;;;;;;;11.80;100.00;98846.09;5002718;28;20035;-73
2023/10/19 03:27:16;;;;;;;;;;;;;;;11.83;100.00;98845.78;5021332;28;19979;-73
2023/10/19 03:29:48;;;;;;;;;;;;;;;11.86;100.00;98840.16;5019729;28;19992;-72
2023/10/19 03:32:14;;;;;;;;;;;;;;;11.86;100.00;98845.44;5022512;28;19927;-73
2023/10/19 03:34:43;;;;;;;;;;;;;;;11.90;100.00;98848.56;5020112;28;19921;-73
2023/10/19 03:37:12;;;;;;;;;;;;;;;11.95;100.00;98853.38;5021849;28;19951;-73
2023/10/19 03:39:38;;;;;;;;;;;;;;;11.96;100.00;98839.16;5021006;28;19921;-73
2023/10/19 03:42:06;;;;;;;;;;;;;;;11.97;100.00;98843.44;5019064;28;19925;-73
2023/10/19 03:44:44;;;;;;;;;;;;;;;11.97;100.00;98840.78;5020212;28;20333;-73
2023/10/19 03:47:14;;;;;;;;;;;;;;;11.98;100.00;98839.78;5019697;28;20355;-73
2023/10/19 03:49:40;;;;;;;;;;;;;;;11.95;100.00;98845.44;5021220;28;20350;-72
2023/10/19 03:54:39;;;;;;;;;;;;;;;12.03;100.00;98835.66;5020436;28;19922;-74
2023/10/19 03:57:06;;;;;;;;;;;;;;;12.08;100.00;98827.19;5002225;28;19921;-72
2023/10/19 03:59:33;;;;;;;;;;;;;;;12.13;100.00;98827.53;5020191;28;20349;-72
2023/10/19 04:02:00;;;;;;;;;;;;;;;12.05;100.00;98820.44;5020637;28;19940;-72
2023/10/19 04:04:27;;;;;;;;;;;;;;;11.96;100.00;98808.22;5018708;28;19921;-73
2023/10/19 04:06:57;;;;;;;;;;;;;;;11.82;100.00;98807.13;5021697;28;20385;-74
2023/10/19 04:09:28;;;;;;;;;;;;;;;11.91;100.00;98805.25;5018239;28;20340;-74
2023/10/19 04:11:56;;;;;;;;;;;;;;;11.98;100.00;98795.66;5003534;28;20262;-73
2023/10/19 04:14:21;;;;;;;;;;;;;;;12.01;100.00;98779.47;5018544;28;20416;-71
2023/10/19 04:16:48;;;;;;;;;;;;;;;12.04;100.00;98783.59;5018261;28;19922;-72
2023/10/19 04:19:14;;;;;;;;;;;;;;;12.01;100.00;98784.78;5021073;28;19921;-73
2023/10/19 04:21:43;;;;;;;;;;;;;;;12.06;100.00;98771.03;5018766;28;19929;-73
2023/10/19 04:24:10;;;;;;;;;;;;;;;12.10;100.00;98767.03;5002482;28;19925;-73
2023/10/19 04:26:37;;;;;;;;;;;;;;;12.13;100.00;98777.28;5019776;28;19921;-73
2023/10/19 04:29:13;;;;;;;;;;;;;;;12.07;100.00;98775.31;5019526;28;19965;-74
2023/10/19 04:31:54;;;;;;;;;;;;;;;11.99;100.00;98768.25;5019347;28;20341;-73
2023/10/19 04:34:21;;;;;;;;;;;;;;;11.95;100.00;98769.59;5018179;28;20429;-72
2023/10/19 04:36:47;;;;;;;;;;;;;;;11.90;100.00;98767.44;5022193;28;19927;-73
2023/10/19 04:39:13;;;;;;;;;;;;;;;11.82;100.00;98764.84;5023509;28;19968;-71
2023/10/19 04:41:39;;;;;;;;;;;;;;;11.83;100.00;98771.78;5020419;28;20022;-72
2023/10/19 04:44:08;;;;;;;;;;;;;;;11.81;100.00;98772.91;5019552;28;19936;-73
2023/10/19 04:46:33;;;;;;;;;;;;;;;11.79;100.00;98769.63;5019613;28;19921;-73
2023/10/19 04:48:59;;;;;;;;;;;;;;;11.89;100.00;98772.91;5018730;28;19922;-71
2023/10/19 04:51:24;;;;;;;;;;;;;;;11.92;100.00;98769.09;5003426;28;19967;-71
2023/10/19 04:53:50;;;;;;;;;;;;;;;11.93;100.00;98757.53;5018952;28;19932;-71
2023/10/19 04:56:15;;;;;;;;;;;;;;;11.81;100.00;98752.59;5023833;28;19920;-70
2023/10/19 04:58:41;;;;;;;;;;;;;;;11.89;100.00;98744.66;5014859;28;20429;-72
2023/10/19 05:01:07;;;;;;;;;;;;;;;11.94;100.00;98735.38;5021415;28;20488;-73
2023/10/19 05:03:33;;;;;;;;;;;;;;;12.01;100.00;98728.41;5004074;28;20020;-70
2023/10/19 05:05:58;;;;;;;;;;;;;;;12.04;100.00;98728.06;5020112;28;20329;-72
2023/10/19 05:08:25;;;;;;;;;;;;;;;12.08;100.00;98732.00;5025858;28;19917;-71
2023/10/19 05:10:54;;;;;;;;;;;;;;;12.11;100.00;98736.97;5026776;28;19925;-71
2023/10/19 05:13:20;;;;;;;;;;;;;;;12.02;100.00;98737.97;5020649;28;19971;-73
2023/10/19 05:15:46;;;;;;;;;;;;;;;11.99;100.00;98725.09;5016117;28;20324;-73
2023/10/19 05:18:12;;;;;;;;;;;;;;;12.03;100.00;98723.75;5018978;28;20376;-75
2023/10/19 05:20:40;;;;;;;;;;;;;;;12.07;100.00;98720.63;5024143;28;19921;-74
2023/10/19 05:23:08;;;;;;;;;;;;;;;12.11;100.00;98718.44;5019569;28;20009;-73
2023/10/19 05:25:36;;;;;;;;;;;;;;;12.11;100.00;98715.81;5019702;28;19967;-73
2023/10/19 05:28:02;;;;;;;;;;;;;;;12.15;100.00;98696.75;5019249;28;19925;-74
2023/10/19 05:30:27;;;;;;;;;;;;;;;12.21;100.00;98689.94;5025123;28;20019;-75
2023/10/19 05:32:53;;;;;;;;;;;;;;;12.25;100.00;98704.50;5021699;28;19928;-73
2023/10/19 05:35:26;;;;;;;;;;;;;;;12.28;100.00;98702.31;5021243;28;19921;-72
2023/10/19 05:37:56;;;;;;;;;;;;;;;12.29;100.00;98695.22;5023037;28;20322;-73
2023/10/19 05:40:23;;;;;;;;;;;;;;;12.32;100.00;98692.19;5025016;28;19921;-74
2023/10/19 05:42:49;;;;;;;;;;;;;;;12.33;100.00;98693.84;5023319;28;19922;-73
2023/10/19 05:45:16;;;;;;;;;;;;;;;12.34;100.00;98699.97;5025530;28;19928;-75
2023/10/19 05:47:42;;;;;;;;;;;;;;;12.36;100.00;98698.81;5024028;28;19925;-73
2023/10/19 05:50:09;;;;;;;;;;;;;;;12.37;100.00;98703.06;5002708;28;19956;-75
2023/10/19 05:52:35;;;;;;;;;;;;;;;12.36;100.00;98708.56;5020742;28;19941;-73
2023/10/19 05:55:00;;;;;;;;;;;;;;;12.31;100.00;98701.16;5020691;28;20419;-73
2023/10/19 05:57:25;;;;;;;;;;;;;;;12.22;100.00;98696.91;5020664;28;19983;-73
2023/10/19 05:59:51;;;;;;;;;;;;;;;12.22;100.00;98705.66;5024262;28;19963;-74
2023/10/19 06:02:17;;;;;;;;;;;;;;;12.25;100.00;98707.94;5021166;28;20012;-73
2023/10/19 06:04:43;;;;;;;;;;;;;;;12.26;100.00;98695.53;5023792;28;20266;-74
2023/10/19 06:07:08;;;;;;;;;;;;;;;12.17;100.00;98693.94;5022313;28;19952;-73
2023/10/19 06:09:35;;;;;;;;;;;;;;;12.21;100.00;98695.25;5022539;28;20354;-74
2023/10/19 06:12:01;;;;;;;;;;;;;;;12.20;100.00;98693.59;5022861;28;19925;-74
2023/10/19 06:14:27;;;;;;;;;;;;;;;12.19;100.00;98697.25;5021424;28;19921;-72
2023/10/19 06:16:53;;;;;;;;;;;;;;;12.18;100.00;98712.31;5023777;28;19928;-73
2023/10/19 06:19:19;;;;;;;;;;;;;;;12.19;100.00;98707.84;5020900;28;19925;-74
2023/10/19 06:21:44;;;;;;;;;;;;;;;12.19;100.00;98707.84;5023693;28;19930;-73
2023/10/19 06:24:14;;;;;;;;;;;;;;;12.17;100.00;98704.53;5023165;28;19932;-74
2023/10/19 06:26:41;;;;;;;;;;;;;;;12.19;100.00;98707.84;5026229;28;19921;-74
2023/10/19 06:29:07;;;;;;;;;;;;;;;12.19;100.00;98710.47;4311056;28;10000759;-73
2023/10/19 06:31:32;;;;;;;;;;;;;;;12.20;100.00;98709.47;5017511;28;19929;-72
2023/10/19 06:33:58;;;;;;;;;;;;;;;12.23;100.00;98711.78;5007051;28;19971;-72
2023/10/19 06:36:24;;;;;;;;;;;;;;;12.12;100.00;98717.47;5021363;28;20373;-72
2023/10/19 06:38:50;;;;;;;;;;;;;;;12.15;100.00;98709.16;5025243;28;20002;-74
2023/10/19 06:41:18;;;;;;;;;;;;;;;12.15;100.00;98707.34;5018518;28;19973;-75
2023/10/19 06:43:44;;;;;;;;;;;;;;;12.17;100.00;98712.47;5021056;28;20340;-73
2023/10/19 06:46:12;;;;;;;;;;;;;;;12.13;100.00;98714.66;5019653;28;19925;-74
2023/10/19 06:48:38;;;;;;;;;;;;;;;12.17;100.00;98707.19;4323273;28;10000731;-74
2023/10/19 06:51:05;;;;;;;;;;;;;;;12.18;100.00;98701.72;5021454;28;19927;-74
2023/10/19 06:53:31;;;;;;;;;;;;;;;12.15;100.00;98701.22;5023253;28;19921;-73
2023/10/19 06:55:56;;;;;;;;;;;;;;;12.16;100.00;98700.22;5003613;28;19921;-74
2023/10/19 06:58:26;;;;;;;;;;;;;;;12.13;100.00;98708.53;5024385;28;19921;-75
2023/10/19 07:01:05;;;;;;;;;;;;;;;12.17;100.00;98721.22;5024407;28;19953;-73
2023/10/19 07:03:30;;;;;;;;;;;;;;;12.22;100.00;98718.06;5021827;28;19959;-74
2023/10/19 07:05:56;;;;;;;;;;;;;;;12.26;100.00;98719.34;5021922;28;19925;-75
2023/10/19 07:08:22;;;;;;;;;;;;;;;12.28;100.00;98706.78;5022820;28;19921;-73
2023/10/19 07:10:49;;;;;;;;;;;;;;;12.31;100.00;98712.53;5024548;28;19925;-73
2023/10/19 07:13:15;;;;;;;;;;;;;;;12.37;100.00;98708.38;5019973;28;20326;-73
2023/10/19 07:15:41;;;;;;;;;;;;;;;12.38;100.00;98707.38;5019026;28;20329;-74
2023/10/19 07:18:06;;;;;;;;;;;;;;;12.35;100.00;98713.03;5021627;28;19925;-73
2023/10/19 07:20:35;;;;;;;;;;;;;;;12.33;100.00;98709.72;5021715;28;20004;-74
2023/10/19 07:25:54;;;;;;;;;;;;;;;12.38;100.00;98702.09;5019797;28;20421;-75
2023/10/19 07:28:20;;;;;;;;;;;;;;;12.43;100.00;98699.72;5019424;28;20358;-75
2023/10/19 07:30:46;;;;;;;;;;;;;;;12.48;100.00;98681.53;5022647;28;19963;-74
2023/10/19 07:33:21;;;;;;;;;;;;;;;12.51;100.00;98675.88;5020259;28;19967;-74
2023/10/19 07:35:47;;;;;;;;;;;;;;;12.58;100.00;98655.66;5022370;28;20327;-74
2023/10/19 07:38:13;;;;;;;;;;;;;;;12.64;100.00;98644.34;5002178;28;19921;-74
2023/10/19 07:40:39;;;;;;;;;;;;;;;12.73;100.00;98650.38;5021494;28;19957;-73
2023/10/19 07:43:05;;;;;;;;;;;;;;;12.75;100.00;98666.09;5020686;28;19959;-75
2023/10/19 07:45:31;;;;;;;;;;;;;;;12.79;100.00;98672.69;5002940;28;19925;-73
2023/10/19 07:47:57;;;;;;;;;;;;;;;12.81;100.00;98681.28;5004357;28;19921;-74
2023/10/19 07:50:23;;;;;;;;;;;;;;;12.81;100.00;98681.28;5019132;28;19968;-74
2023/10/19 07:52:53;;;;;;;;;;;;;;;12.84;100.00;98671.13;5018992;28;20011;-74
2023/10/19 07:55:20;;;;;;;;;;;;;;;12.86;100.00;98678.91;5019681;28;19922;-74
2023/10/19 07:57:45;;;;;;;;;;;;;;;12.87;100.00;98676.09;5021747;28;19921;-75
2023/10/19 08:00:15;;;;;;;;;;;;;;;12.87;100.00;98670.78;5019477;28;20027;-75
2023/10/19 08:02:41;;;;;;;;;;;;;;;12.84;100.00;98665.84;5021473;28;19926;-74
2023/10/19 08:05:11;;;;;;;;;;;;;;;12.82;100.00;98651.16;5020023;28;21006;-73
2023/10/19 08:07:39;;;;;;;;;;;;;;;12.86;100.00;98657.72;5020592;28;19933;-73
2023/10/19 08:10:05;;;;;;;;;;;;;;;12.86;100.00;98668.31;5019985;28;19921;-74
2023/10/19 08:12:32;;;;;;;;;;;;;;;12.86;100.00;98684.22;5018401;28;19929;-73
2023/10/19 08:14:58;;;;;;;;;;;;;;;12.87;100.00;98677.91;5019585;28;19921;-74
2023/10/19 08:17:23;;;;;;;;;;;;;;;12.88;100.00;98671.63;5018211;28;19949;-74
2023/10/19 08:19:49;;;;;;;;;;;;;;;12.88;100.00;98666.31;5021191;28;20004;-74
2023/10/19 08:22:15;;;;;;;;;;;;;;;12.90;100.00;98653.75;5018707;28;19994;-74
2023/10/19 08:24:43;;;;;;;;;;;;;;;12.90;100.00;98653.75;5021123;28;19921;-74
2023/10/19 08:27:10;;;;;;;;;;;;;;;12.93;100.00;98653.38;5019455;28;20285;-74
2023/10/19 08:29:39;;;;;;;;;;;;;;;12.94;100.00;98652.38;5020400;28;19926;-73
2023/10/19 08:32:06;;;;;;;;;;;;;;;12.96;100.00;98653.03;5019243;28;19925;-73
2023/10/19 08:34:35;;;;;;;;;;;;;;;12.94;100.00;98639.97;5020179;28;19971;-73
2023/10/19 08:37:02;;;;;;;;;;;;;;;12.96;100.00;98640.59;5020695;28;20337;-73
2023/10/19 08:39:28;;;;;;;;;;;;;;;12.96;100.00;98643.22;5019533;28;19922;-74
2023/10/19 08:41:55;;;;;;;;;;;;;;;12.97;100.00;98638.75;5021928;28;19986;-74
2023/10/19 08:44:20;;;;;;;;;;;;;;;12.98;100.00;98640.41;5019157;28;20747;-72
2023/10/19 08:46:49;;;;;;;;;;;;;;;12.97;100.00;98644.06;5021887;28;19925;-74
2023/10/19 08:49:15;;;;;;;;;;;;;;;12.94;100.00;98649.72;5019533;28;19968;-74
2023/10/19 08:51:46;;;;;;;;;;;;;;;12.86;100.00;98660.38;5020899;28;20013;-73
2023/10/19 08:54:15;;;;;;;;;;;;;;;12.80;100.00;98659.28;5019323;28;19936;-73
2023/10/19 08:56:41;;;;;;;;;;;;;;;12.80;100.00;98653.97;5021328;28;19922;-73
2023/10/19 08:59:07;;;;;;;;;;;;;;;12.79;100.00;98657.63;5020094;28;19922;-73
2023/10/19 09:01:35;;;;;;;;;;;;;;;12.82;100.00;98651.16;5020028;28;19922;-73
2023/10/19 09:04:01;;;;;;;;;;;;;;;12.85;100.00;98634.91;5021031;28;20003;-73
2023/10/19 09:06:28;;;;;;;;;;;;;;;12.90;100.00;98637.84;5018160;28;19922;-73
2023/10/19 09:08:53;;;;;;;;;;;;;;;12.92;100.00;98644.59;5020707;28;19928;-74
2023/10/19 09:11:20;;;;;;;;;;;;;;;12.95;100.00;98630.19;5021018;28;19922;-74
2023/10/19 09:13:46;;;;;;;;;;;;;;;12.96;100.00;98618.59;5024574;28;19921;-74
2023/10/19 09:16:15;;;;;;;;;;;;;;;13.01;100.00;98613.59;5022113;28;19925;-74
2023/10/19 09:18:41;;;;;;;;;;;;;;;13.06;100.00;98605.91;5023896;28;19925;-74
2023/10/19 09:21:07;;;;;;;;;;;;;;;13.09;100.00;98606.34;5022674;28;20301;-73
2023/10/19 09:23:33;;;;;;;;;;;;;;;13.15;100.00;98612.78;5022492;28;20309;-75
2023/10/19 09:26:03;;;;;;;;;;;;;;;13.19;100.00;98616.75;5023674;28;20020;-75
2023/10/19 09:28:28;;;;;;;;;;;;;;;13.21;100.00;98620.00;5022074;28;19968;-74
2023/10/19 09:30:55;;;;;;;;;;;;;;;13.23;100.00;98623.31;5023764;28;20354;-74
2023/10/19 09:33:21;;;;;;;;;;;;;;;13.24;100.00;98611.72;5021356;28;19921;-74
2023/10/19 09:35:48;;;;;;;;;;;;;;;13.25;100.00;98605.41;5024192;28;20015;-73
2023/10/19 09:38:21;;;;;;;;;;;;;;;13.24;100.00;98601.13;5021576;28;19933;-75
2023/10/19 09:40:47;;;;;;;;;;;;;;;13.22;100.00;98600.47;5024137;28;20353;-74
2023/10/19 09:43:15;;;;;;;;;;;;;;;13.23;100.00;98591.50;5021674;28;20000;-73
2023/10/19 09:45:42;;;;;;;;;;;;;;;13.23;100.00;98583.56;5023169;28;19932;-74
2023/10/19 09:48:08;;;;;;;;;;;;;;;13.24;100.00;98571.97;5022094;28;19921;-73
2023/10/19 09:50:33;;;;;;;;;;;;;;;13.25;100.00;98573.63;5004486;28;19944;-73
2023/10/19 09:52:59;;;;;;;;;;;;;;;13.30;100.00;98576.53;5023175;28;19990;-73
2023/10/19 09:55:29;;;;;;;;;;;;;;;13.34;100.00;98571.69;5021095;28;19937;-74
2023/10/19 09:57:58;;;;;;;;;;;;;;;13.33;100.00;98575.34;5023652;28;20416;-73
2023/10/19 10:00:24;;;;;;;;;;;;;;;13.35;100.00;98590.06;5003155;28;20020;-72
2023/10/19 10:02:55;;;;;;;;;;;;;;;13.35;100.00;98587.41;5023755;28;19929;-74
2023/10/19 10:05:39;;;;;;;;;;;;;;;13.36;100.00;98597.00;5021021;28;19925;-74
2023/10/19 10:08:16;;;;;;;;;;;;;;;13.36;100.00;98602.31;5021946;28;19922;-74
2023/10/19 10:10:42;;;;;;;;;;;;;;;13.36;100.00;98596.19;5003618;28;19921;-77
2023/10/19 10:13:26;;;;;;;;;;;;;;;13.38;100.00;98594.97;5022413;28;20125;-72
2023/10/19 10:15:53;;;;;;;;;;;;;;;13.39;100.00;98596.63;5019963;28;20044;-73
2023/10/19 10:18:18;;;;;;;;;;;;;;;13.42;100.00;98596.28;5020522;28;19921;-73
2023/10/19 10:20:43;;;;;;;;;;;;;;;13.50;100.00;98598.81;5023400;28;19939;-74
2023/10/19 10:23:28;;;;;;;;;;;;;;;13.56;100.00;98604.38;5003091;28;19925;-74
2023/10/19 10:25:53;;;;;;;;;;;;;;;13.58;100.00;98607.66;5021319;28;20016;-74
2023/10/19 10:28:19;;;;;;;;;;;;;;;13.58;100.00;98610.31;5023614;28;20040;-73
2023/10/19 10:31:03;;;;;;;;;;;;;;;13.59;100.00;98596.88;5022305;28;19921;-73
2023/10/19 10:33:40;;;;;;;;;;;;;;;13.56;100.00;98596.41;5020986;28;19987;-74
2023/10/19 10:36:06;;;;;;;;;;;;;;;13.55;100.00;98573.59;5021510;28;19925;-75
2023/10/19 10:38:37;;;;;;;;;;;;;;;13.56;100.00;98564.59;5021202;28;19928;-72
2023/10/19 10:41:09;;;;;;;;;;;;;;;13.59;100.00;98566.91;5021668;28;20147;-73
2023/10/19 10:43:48;;;;;;;;;;;;;;;13.60;100.00;98576.50;5021469;28;19929;-74
2023/10/19 10:46:13;;;;;;;;;;;;;;;13.56;100.00;98564.59;5020032;28;20393;-74
2023/10/19 10:48:42;;;;;;;;;;;;;;;13.57;100.00;98539.75;5021725;28;19956;-72
2023/10/19 10:51:30;;;;;;;;;;;;;;;13.62;100.00;98500.25;5003256;28;20393;-74
2023/10/19 10:53:57;;;;;;;;;;;;;;;13.74;100.00;98488.13;5019985;28;20451;-74
2023/10/19 10:56:23;;;;;;;;;;;;;;;13.78;100.00;98505.34;5005263;28;20015;-74
2023/10/19 10:58:50;;;;;;;;;;;;;;;13.86;100.00;98502.53;5019389;28;19929;-74
2023/10/19 11:01:27;;;;;;;;;;;;;;;13.83;100.00;98500.28;5023185;28;19999;-76
2023/10/19 11:04:05;;;;;;;;;;;;;;;13.99;100.00;98504.50;5019932;28;19938;-73
2023/10/19 11:06:34;;;;;;;;;;;;;;;14.08;100.00;98501.53;5004327;28;19925;-74
2023/10/19 11:09:08;;;;;;;;;;;;;;;14.15;100.00;98507.72;4671045;28;10000151;-73
2023/10/19 11:11:38;;;;;;;;;;;;;;;14.10;100.00;98504.81;5016493;28;20378;-74
2023/10/19 11:14:11;;;;;;;;;;;;;;;14.08;100.00;98496.22;5019147;28;19952;-73
2023/10/19 11:16:39;;;;;;;;;;;;;;;14.14;100.00;98503.41;5018630;28;20019;-73
2023/10/19 11:19:05;;;;;;;;;;;;;;;14.17;100.00;98497.75;5019016;28;19926;-73
2023/10/19 11:21:31;;;;;;;;;;;;;;;14.22;100.00;98498.00;5020028;28;20255;-73
2023/10/19 11:23:57;;;;;;;;;;;;;;;14.27;100.00;98508.84;5018062;28;19921;-73
2023/10/19 11:26:27;;;;;;;;;;;;;;;14.33;100.00;98497.47;5023698;28;19927;-74
2023/10/19 11:29:09;;;;;;;;;;;;;;;14.43;100.00;98499.00;5017298;28;19936;-73
2023/10/19 11:31:39;;;;;;;;;;;;;;;14.52;100.00;98497.84;5021672;28;19931;-73
2023/10/19 11:34:07;;;;;;;;;;;;;;;14.66;100.00;98488.97;5019723;28;19929;-73
2023/10/19 11:36:34;;;;;;;;;;;;;;;14.78;100.00;98487.41;5017363;28;20016;-74
2023/10/19 11:39:00;;;;;;;;;;;;;;;14.82;100.00;98483.34;5022381;28;20398;-73
2023/10/19 11:41:30;;;;;;;;;;;;;;;14.87;100.00;98491.53;5018479;28;19917;-73
2023/10/19 11:43:55;;;;;;;;;;;;;;;14.77;100.00;98504.34;5016429;28;20297;-74
2023/10/19 11:46:25;;;;;;;;;;;;;;;14.81;100.00;98497.63;5016991;28;19929;-74
2023/10/19 11:48:51;;;;;;;;;;;;;;;14.84;100.00;98480.50;5018208;28;19960;-74
2023/10/19 11:51:16;;;;;;;;;;;;;;;14.86;100.00;98468.63;5001192;28;19948;-73
2023/10/19 11:53:45;;;;;;;;;;;;;;;14.91;100.00;98458.25;5019043;28;19921;-74
2023/10/19 11:56:12;;;;;;;;;;;;;;;14.95;100.00;98451.53;4984497;28;20048;-74
2023/10/19 11:58:40;;;;;;;;;;;;;;;14.97;100.00;98449.47;5018332;28;19925;-72
2023/10/19 12:01:08;;;;;;;;;;;;;;;14.99;100.00;98447.47;4328694;28;10000764;-73
2023/10/19 12:03:37;;;;;;;;;;;;;;;15.02;100.00;98454.22;5002510;28;19964;-74
2023/10/19 12:06:09;;;;;;;;;;;;;;;15.03;100.00;98458.50;5023535;28;19956;-74
2023/10/19 12:08:37;;;;;;;;;;;;;;;15.02;100.00;98447.06;5018772;28;20837;-73
2023/10/19 12:11:15;;;;;;;;;;;;;;;15.09;100.00;98437.28;5004090;28;19921;-73
2023/10/19 12:13:43;;;;;;;;;;;;;;;15.13;100.00;98422.59;5016668;28;20376;-74
2023/10/19 12:16:11;;;;;;;;;;;;;;;15.22;100.00;98419.75;5021860;28;20381;-73
2023/10/19 12:18:38;;;;;;;;;;;;;;;15.26;100.00;98420.97;5016648;28;19926;-72
2023/10/19 12:21:07;;;;;;;;;;;;;;;15.21;100.00;98434.88;5005602;28;19972;-74
2023/10/19 12:23:33;;;;;;;;;;;;;;;15.22;100.00;98447.13;5023463;28;19928;-71
2023/10/19 12:26:04;;;;;;;;;;;;;;;15.20;100.00;98427.13;5019159;28;19928;-72
2023/10/19 12:28:30;;;;;;;;;;;;;;;15.20;100.00;98427.13;5008686;28;19921;-74
2023/10/19 12:30:56;;;;;;;;;;;;;;;15.10;100.00;98411.53;5015781;28;19922;-74
2023/10/19 12:33:22;;;;;;;;;;;;;;;14.98;100.00;98419.25;5021273;28;19928;-74
2023/10/19 12:35:51;;;;;;;;;;;;;;;14.92;100.00;98425.34;5019579;28;20344;-72
2023/10/19 12:38:17;;;;;;;;;;;;;;;14.89;100.00;98420.44;5004643;28;20012;-74
2023/10/19 12:40:44;;;;;;;;;;;;;;;14.83;100.00;98425.72;5022197;28;20008;-74
2023/10/19 12:43:10;;;;;;;;;;;;;;;14.77;100.00;98411.41;5021814;28;19921;-73
2023/10/19 12:45:37;;;;;;;;;;;;;;;14.75;100.00;98382.38;5026379;28;19975;-75
2023/10/19 12:48:04;;;;;;;;;;;;;;;14.69;100.00;98363.75;5024097;28;19975;-73
2023/10/19 12:50:30;;;;;;;;;;;;;;;14.65;100.00;98360.69;5027185;28;19921;-77
2023/10/19 12:53:01;;;;;;;;;;;;;;;14.60;100.00;98363.13;5022804;28;19928;-73
2023/10/19 12:55:27;;;;;;;;;;;;;;;14.60;100.00;98368.44;5026293;28;19987;-72
2023/10/19 12:57:53;;;;;;;;;;;;;;;14.55;100.00;98370.84;5025371;28;19928;-74